Aérodrome :
LOGIN :

S'inscrire | Disclaimer

   EN    FR    IT 

 










Légende :    VFR   VFR Marginal   IFR   IFR Intensif   IFR Très Intensif
Visi : 
Plafond : 
>= 8 km
>= 3000ft
5 à 8 km
1000 à 3000 ft
1500m à 5 km
500 à 1000 ft
800 à 1500m
200 à 500 ft
< 800m
< 200 ft
Symboles :   Orages  Brouillard  Fortes neiges  Fortes précipitations  Vent > 20 kt
SIGMETs :   Divers  Orages  Givrage  Turbulence  Onde Orograph.  Cendres Volcan.






- Altitude de l'aérodrome : 416 ft
- Code IATA : OVD


LEAS - Asturias

DERNIER METAR :
  • 211030Z 29007KT 250V330 9999 FEW026 BKN044 18/13 Q1021 NOSIG

METARs EXPIRÉS :
  • 211000Z 30006KT 240V330 9999 FEW026 BKN044 18/13 Q1021 NOSIG
  • 210930Z 26006KT 220V290 9999 FEW026 BKN042 18/13 Q1021 NOSIG
  • 210900Z 25006KT 220V290 9999 FEW026 BKN046 18/13 Q1020 NOSIG
  • 210830Z 24005KT 200V280 9999 FEW031 BKN047 18/13 Q1021 NOSIG
  • 210800Z 27004KT 250V310 9999 SCT032 BKN044 17/13 Q1020 NOSIG
  • 210730Z 26006KT 230V300 9999 SCT036 BKN044 16/12 Q1020 NOSIG
  • 210700Z 23005KT 9999 FEW036 BKN044 16/12 Q1020 NOSIG
  • 210630Z 22005KT 9999 FEW036 BKN044 16/11 Q1020 NOSIG

TAF TAF LEAS
Valide du 21 à 09h jusqu'au 22 à 09h UTC


210800Z 2109/2209 29010KT 9999 SCT040 TX20/2114Z TN12/2205Z
BECMG 2117/2119 VRB03KT



MET'MAP, la Météo Aéronautique d'un coup d'oeil ! - Copyright ORBIFLY Décembre 2007 - Disclaimer

ORBIFLY MET'MAP TEAM :

Programmation & Développement : Alexandra Zaïnal
Sur une idée originale de : Baudouin d'Aumeries
Soutien technique & logistique : Manuel Goepfert
Assistance : Marc-Olivier Méhu




SOURCES & CREDITS :

   NOAA